Airfield :
LOGIN :

Register | Disclaimer

   EN    FR    IT 

 










Legend :    VFR   Marginal VFR   IFR   Intensive IFR   Very Intensive IFR
Visi :
Ceiling :
>= 8 km
>= 3000ft
5 to 8 km
1000 to 3000 ft
1500m to 5 km
500 to 1000 ft
800 to 1500m
200 to 500 ft
< 800m
< 200 ft
Symbols :   Thunderstorms  Fog  Heavy snow  Heavy precipitations  Wind > 20 kt
SIGMETs :     Misc.  Thunderstorms  Icing  Turbulence  Mountain Waves  Volcanic Ashes






- Airport Elevation : 18 ft
- IATA code : SZF


LTFH - Carsamba

CURRENT METAR :
  • 151650Z VRB02KT CAVOK 13/12 Q1021 BECMG 2500 BR

EXPIRED METARs :
  • 151550Z 16004KT 140V200 CAVOK 14/12 Q1020 NOSIG
  • 151450Z VRB02KT CAVOK 16/12 Q1020 NOSIG

TAF TAF LTFH
Valid from the 15 at 18:00 until the 16 at 03:00 UTC


151640Z 1518/1603 VRB02KT 2500 BR SCT008
TEMPO 1520/1524 0500 FG BKN002



MET'MAP, your aeronautical weather chart ! - Copyright ORBIFLY December 2007 - Disclaimer

ORBIFLY MET'MAP TEAM :

Programming & Development : Alexandra Zaïnal
Concept & Development : Baudouin d'Aumeries
Co-Development & Prog : Marc-Olivier Méhu
Technical & hardware support : Manuel Goepfert

Contact : metmap@orbifly.com




SOURCES & CREDITS :

   NOAA